• Join FlightAware (Why Join?)
  • Login
  • US Flag 
12:57AM EDT


 

Airport Tracker/Info


-or-


 

Live Flight TrackerFlight Track Log ✈ AWE479 ✈ 01-May-2013 ✈ KCLT - KDEN

Flight Track Log - Related Links

Times and Time Zones

All times are in EDT time to prevent confusion due to time zone crossing. See the AWE479 flight status page for this flight to view local times or setup timezone preferences in your user account.

Time Position Orientation Groundspeed Altitude Reporting Facility
EDT Latitude Longitude Course Direction KTS MPH feet Rate Location/Type
08:03AM 35.2690 -80.9800 320° Northwest 219 252 2,500  Level FlightAware
08:04AM 35.2890 -81.0050 314° West 253 291 3,100 1,920 Climbing FlightAware
08:04AM 35.2940 -81.0250 287° West 259 298 3,800 2,100 Climbing FlightAware
08:04AM 35.2880 -81.0650 260° West 280 322 4,700 2,280 Climbing FlightAware
08:05AM 35.2760 -81.1150 254° West 287 330 6,100 2,460 Climbing FlightAware
08:05AM 35.2620 -81.1690 252° West 294 338 7,400 1,260 Climbing FlightAware
08:06AM 35.2540 -81.2060 255° West 294 338 7,400 1,680 Level FlightAware
08:06AM 35.2390 -81.2640 252° West 301 346 9,100 1,680 Climbing FlightAware
08:07AM 35.2300 -81.3010 253° West 301 346 9,100  Level FlightAware
08:07AM 35.2200 -81.3430 254° West 301 346 9,100  Level FlightAware
08:08AM 35.2100 -81.3850 254° West 301 346 9,100  Level FlightAware
08:08AM 35.2000 -81.4270 254° West 301 346 9,100 2,220 Level FlightAware
08:14AM 35.0940 -82.2035 261° West 395 455 23,300 2,400 Climbing FlightAware ADS-B
08:14AM 35.0914 -82.2449 266° West 397 457 23,800 1,380 Climbing FlightAware ADS-B
08:15AM 35.0918 -82.2607 272° West 400 460 23,900 1,020 Climbing FlightAware ADS-B
08:15AM 35.0942 -82.2830 277° West 402 463 24,100 1,200 Climbing FlightAware ADS-B
08:15AM 35.0964 -82.2942 284° West 403 464 24,200 1,200 Climbing FlightAware ADS-B
08:15AM 35.1132 -82.3601 287° West 408 470 24,800 1,200 Climbing FlightAware ADS-B
08:16AM 35.1313 -82.4304 287° West 407 468 25,500 1,320 Climbing FlightAware ADS-B
08:16AM 35.1487 -82.4986 287° West 409 471 26,200 1,320 Climbing FlightAware ADS-B
08:17AM 35.1657 -82.5650 287° West 406 467 26,900 2,040 Climbing FlightAware ADS-B
08:17AM 35.1837 -82.6354 287° West 387 445 28,400 1,800 Climbing FlightAware ADS-B
08:18AM 35.1997 -82.6982 287° West 390 449 28,800 780 Climbing FlightAware ADS-B
08:18AM 35.2160 -82.7624 287° West 393 452 29,200 720 Climbing FlightAware ADS-B
08:19AM 35.2412 -82.8619 287° West 398 458 29,800 720 Climbing FlightAware ADS-B
08:20AM 35.2586 -82.9310 287° West 402 463 30,200 720 Climbing FlightAware ADS-B
08:20AM 35.2760 -82.9999 287° West 404 465 30,600 840 Climbing FlightAware ADS-B
08:21AM 35.2928 -83.0664 287° West 406 467 31,100 960 Climbing FlightAware ADS-B
08:21AM 35.3098 -83.1343 287° West 402 463 31,600 960 Climbing FlightAware ADS-B
08:22AM 35.3284 -83.2085 287° West 398 458 32,200 900 Climbing FlightAware ADS-B
08:22AM 35.3447 -83.2740 287° West 398 458 32,600 780 Climbing FlightAware ADS-B
08:23AM 35.3608 -83.3387 287° West 397 457 33,000 600 Climbing FlightAware ADS-B
08:24AM 35.3844 -83.4338 287° West 397 457 33,400 480 Climbing FlightAware ADS-B
08:24AM 35.4007 -83.5000 287° West 400 460 33,600 360 Climbing FlightAware ADS-B
08:25AM 35.4179 -83.5697 287° West 403 464 33,800 360 Climbing FlightAware ADS-B
08:25AM 35.4340 -83.6358 287° West 403 464 34,000 180 Climbing FlightAware ADS-B
08:26AM 35.4500 -83.7013 287° West 402 463 34,000  Level FlightAware ADS-B
08:26AM 35.4662 -83.7677 287° West 404 465 34,000  Level FlightAware ADS-B
08:27AM 35.4831 -83.8371 287° West 405 466 34,000  Level FlightAware ADS-B
08:27AM 35.4997 -83.9048 287° West 405 466 34,000  Level FlightAware ADS-B
08:28AM 35.5162 -83.9732 287° West 406 467 34,000  Level FlightAware ADS-B
08:28AM 35.5328 -84.0414 287° West 406 467 34,000  Level FlightAware ADS-B
08:29AM 35.5489 -84.1085 286° West 406 467 34,000  Level FlightAware ADS-B
08:29AM 35.5654 -84.1772 286° West 407 468 34,000  Level FlightAware ADS-B
08:30AM 35.5814 -84.2441 286° West 409 471 34,000  Level FlightAware ADS-B
08:30AM 35.5977 -84.3120 286° West 408 470 34,000  Level FlightAware ADS-B
08:31AM 35.6136 -84.3787 286° West 408 470 34,000  Level FlightAware ADS-B
08:31AM 35.6296 -84.4462 286° West 408 470 34,000  Level FlightAware ADS-B
08:32AM 35.6455 -84.5132 286° West 408 470 34,000  Level FlightAware ADS-B
08:32AM 35.6614 -84.5805 286° West 408 470 34,000  Level FlightAware ADS-B
08:33AM 35.6771 -84.6472 286° West 407 468 34,000  Level FlightAware ADS-B
08:33AM 35.6928 -84.7139 286° West 407 468 34,000  Level FlightAware ADS-B
08:34AM 35.7089 -84.7824 286° West 407 468 34,000  Level FlightAware ADS-B
08:34AM 35.7265 -84.8573 286° West 408 470 34,000  Level FlightAware ADS-B
08:35AM 35.7424 -84.9259 286° West 407 468 34,000  Level FlightAware ADS-B
08:36AM 35.7653 -85.0242 286° West 409 471 34,000  Level FlightAware ADS-B
08:36AM 35.7812 -85.0929 286° West 409 471 34,000  Level FlightAware ADS-B
08:37AM 35.7970 -85.1611 286° West 411 473 34,000  Level FlightAware ADS-B
08:37AM 35.8127 -85.2293 286° West 411 473 34,000  Level FlightAware ADS-B
08:38AM 35.8283 -85.2973 286° West 412 474 34,000  Level FlightAware ADS-B
08:38AM 35.8441 -85.3663 286° West 412 474 34,000  Level FlightAware ADS-B
08:39AM 35.8598 -85.4351 286° West 413 475 34,000  Level FlightAware ADS-B
08:39AM 35.8754 -85.5034 286° West 413 475 34,000  Level FlightAware ADS-B
08:40AM 35.9005 -85.6138 286° West 413 475 34,000  Level FlightAware ADS-B
08:40AM 35.9165 -85.6844 286° West 413 475 34,000  Level FlightAware ADS-B
08:41AM 35.9324 -85.7550 286° West 412 474 34,000  Level FlightAware ADS-B
08:42AM 35.9512 -85.8387 286° West 412 474 34,000  Level FlightAware ADS-B
08:42AM 35.9664 -85.9068 285° West 410 472 34,000  Level FlightAware ADS-B
08:43AM 35.9823 -85.9784 285° West 410 472 34,000  Level FlightAware ADS-B
08:44AM 36.0124 -86.1136 285° West 409 471 34,000  Level FlightAware ADS-B
08:44AM 36.0279 -86.1838 285° West 410 472 34,000  Level FlightAware ADS-B
08:45AM 36.0432 -86.2531 285° West 410 472 34,000  Level FlightAware ADS-B
08:45AM 36.0585 -86.3230 285° West 412 474 34,000  Level FlightAware ADS-B
08:46AM 36.0741 -86.3944 285° West 413 475 34,000  Level FlightAware ADS-B
08:47AM 36.1000 -86.5120 285° West 415 478 34,000 60 Level FlightAware
08:47AM 36.1230 -86.6190 285° West 416 479 34,100 60 Climbing FlightAware
08:48AM 36.1490 -86.7060 290° West 420 483 34,100 -120 Level FlightAware
08:49AM 36.1870 -86.7930 298° West 421 484 34,000 -120 Descending FlightAware
08:49AM 36.2290 -86.8850 300° West 419 482 34,000  Level FlightAware
08:50AM 36.2660 -86.9680 299° West 419 482 34,000  Level FlightAware
08:51AM 36.3100 -87.0660 299° West 420 483 34,000  Level FlightAware
08:51AM 36.3470 -87.1480 299° West 421 484 34,000  Level FlightAware
08:52AM 36.3860 -87.2340 299° West 423 487 34,000 180 Level FlightAware
08:53AM 36.4280 -87.3280 299° West 424 488 34,300 480 Climbing FlightAware
08:53AM 36.4620 -87.4040 299° West 422 486 34,700 540 Climbing FlightAware
08:54AM 36.5090 -87.5080 299° West 421 484 35,100 300 Climbing FlightAware
08:55AM 36.5470 -87.5940 299° West 427 491 35,200 180 Climbing FlightAware
08:56AM 36.5860 -87.6820 299° West 431 496 35,400 300 Climbing FlightAware
08:56AM 36.6290 -87.7780 299° West 430 495 35,700 420 Climbing FlightAware
08:57AM 36.6640 -87.8580 299° West 428 493 36,000 180 Climbing FlightAware
08:58AM 36.7030 -87.9500 298° West 427 491 36,000  Level FlightAware
08:58AM 36.7470 -88.0480 299° West 428 493 36,000  Level FlightAware
08:59AM 36.7860 -88.1360 299° West 427 491 36,000  Level FlightAware
09:00AM 36.8280 -88.2330 298° West 428 493 36,000  Level FlightAware
09:01AM 36.8660 -88.3190 299° West 430 495 36,000  Level FlightAware
09:01AM 36.9150 -88.4340 298° West 429 494 36,000  Level FlightAware
09:02AM 36.9550 -88.5250 299° West 430 495 36,000  Level FlightAware
09:03AM 36.9980 -88.6260 298° West 431 496 36,000  Level FlightAware
09:04AM 37.0360 -88.7130 299° West 431 496 36,000  Level FlightAware
09:04AM 37.0810 -88.8190 298° West 430 495 36,000  Level FlightAware
09:05AM 37.1210 -88.9120 298° West 430 495 36,000  Level FlightAware
09:06AM 37.1680 -89.0210 298° West 429 494 36,000  Level FlightAware
09:07AM 37.2050 -89.1080 298° West 430 495 36,000  Level FlightAware
09:07AM 37.2460 -89.2070 298° West 431 496 36,000  Level FlightAware
09:08AM 37.2800 -89.2870 298° West 432 497 36,000  Level FlightAware
09:09AM 37.3100 -89.3620 297° West 432 497 36,000  Level FlightAware
09:09AM 37.3490 -89.4570 297° West 432 497 36,000  Level FlightAware
09:10AM 37.3800 -89.5330 297° West 432 497 36,000  Level FlightAware
09:11AM 37.4440 -89.6780 299° West 437 503 36,000  Level FlightAware
09:12AM 37.4950 -89.8010 298° West 437 503 36,000  Level FlightAware
09:13AM 37.5390 -89.9070 298° West 437 503 36,100 60 Climbing FlightAware
09:13AM 37.5780 -90.0040 297° West 437 503 36,100  Level FlightAware
09:14AM 37.6090 -90.0810 297° West 437 503 36,100 -120 Level FlightAware
09:15AM 37.6600 -90.2020 298° West 436 502 36,000 -120 Descending FlightAware
09:15AM 37.6920 -90.2790 298° West 436 502 36,000  Level FlightAware
09:16AM 37.7300 -90.3760 296° West 436 502 36,000  Level FlightAware
09:17AM 37.7620 -90.4530 298° West 436 502 36,000  Level FlightAware
09:18AM 37.7930 -90.5300 297° West 436 502 36,000  Level FlightAware
09:18AM 37.7480 -90.7010 252° West 438 504 36,000  Level FlightAware
09:19AM 37.7630 -90.7980 281° West 439 505 36,000  Level FlightAware
09:19AM 37.7750 -90.8820 280° West 439 505 36,000  Level FlightAware
09:20AM 37.7920 -90.9890 281° West 439 505 36,000  Level FlightAware
09:21AM 37.8050 -91.0750 281° West 439 505 36,000  Level FlightAware
09:21AM 37.8180 -91.1600 281° West 439 505 36,000  Level FlightAware
09:22AM 37.8350 -91.2680 281° West 439 505 36,000  Level FlightAware
09:23AM 37.8480 -91.3530 281° West 439 505 36,000  Level FlightAware
09:24AM 37.8610 -91.4390 281° West 439 505 36,000  Level FlightAware
09:24AM 37.8740 -91.5250 281° West 439 505 36,000  Level FlightAware
09:25AM 37.8870 -91.6110 281° West 439 505 36,000  Level FlightAware
09:26AM 37.9000 -91.6970 281° West 439 505 36,000  Level FlightAware
09:26AM 37.9140 -91.7830 282° West 439 505 36,000  Level FlightAware
09:27AM 37.9270 -91.8690 281° West 439 505 36,000  Level FlightAware
09:28AM 37.9400 -91.9550 281° West 439 505 36,000  Level FlightAware
09:28AM 37.9560 -92.0620 281° West 439 505 36,000  Level FlightAware
09:29AM 37.9953 -92.3808 281° West 450 518 36,000  Level Kansas City Center
09:35AM 38.1280 -93.3520 281° West 445 512 36,000  Level FlightAware
09:36AM 38.1450 -93.4790 280° West 447 514 36,100 60 Climbing FlightAware
09:37AM 38.1590 -93.5840 280° West 445 512 36,100  Level FlightAware
09:38AM 38.1690 -93.6680 279° West 445 512 36,100  Level FlightAware
09:38AM 38.1830 -93.7770 279° West 445 512 36,100 -120 Level FlightAware
09:39AM 38.2000 -93.9060 280° West 441 507 36,000 -120 Descending FlightAware
09:40AM 38.2140 -94.0130 279° West 440 506 36,000  Level FlightAware
09:40AM 38.2280 -94.1310 279° West 439 505 36,000  Level FlightAware
09:41AM 38.2410 -94.2320 279° West 439 505 36,000  Level FlightAware
09:42AM 38.2550 -94.3450 279° West 439 505 36,000  Level FlightAware
09:43AM 38.2670 -94.4470 279° West 430 495 36,000  Level FlightAware
09:43AM 38.2710 -94.5310 273° West 429 494 36,000  Level FlightAware
09:44AM 38.2670 -94.6630 268° West 433 498 36,000  Level FlightAware
09:45AM 38.2640 -94.7650 268° West 435 501 36,000  Level FlightAware
09:45AM 38.2600 -94.8720 267° West 436 502 36,000  Level FlightAware
09:46AM 38.2570 -94.9780 268° West 437 503 36,000  Level FlightAware
09:47AM 38.2530 -95.0810 267° West 437 503 36,000  Level FlightAware
09:47AM 38.2490 -95.2020 268° West 437 503 36,000  Level FlightAware
09:48AM 38.2460 -95.2980 268° West 436 502 36,000  Level FlightAware
09:49AM 38.2420 -95.3810 267° West 436 502 36,000  Level FlightAware
09:50AM 38.2380 -95.4900 267° West 436 502 36,000  Level FlightAware
09:50AM 38.2330 -95.6240 267° West 434 499 36,000  Level FlightAware
09:51AM 38.2290 -95.7100 267° West 434 499 36,000  Level FlightAware
09:52AM 38.2260 -95.7970 268° West 434 499 36,000  Level FlightAware
09:52AM 38.2220 -95.8840 267° West 434 499 36,000  Level FlightAware
09:53AM 38.2190 -95.9710 268° West 434 499 36,000  Level FlightAware
09:54AM 38.2150 -96.0570 267° West 434 499 36,000  Level FlightAware
09:54AM 38.2110 -96.1660 267° West 434 499 36,000  Level FlightAware
09:55AM 38.2070 -96.2530 267° West 434 499 36,000  Level FlightAware
09:56AM 38.2030 -96.3390 267° West 434 499 36,000  Level FlightAware
09:56AM 38.2000 -96.4260 268° West 434 499 36,000  Level FlightAware
09:57AM 38.1860 -96.6930 266° West 424 488 36,000  Level FlightAware
09:58AM 38.1860 -96.6930 266° West 423 487 36,000  Level FlightAware
09:59AM 38.1760 -96.8920 266° West 423 487 36,000  Level FlightAware
10:00AM 38.1700 -97.0150 266° West 422 486 36,000  Level FlightAware
10:00AM 38.1650 -97.1180 266° West 422 486 36,000  Level FlightAware
10:01AM 38.1575 -97.2525 266° West 421 484 36,100  Climbing Kansas City Center
10:02AM 38.1497 -97.3997 266° West 420 483 36,100 -60 Level Kansas City Center
10:08AM 38.1020 -98.2220 266° West 409 471 36,000 -60 Descending FlightAware
10:09AM 38.0970 -98.3040 266° West 409 471 36,000  Level FlightAware
10:09AM 38.0920 -98.4060 266° West 409 471 36,000  Level FlightAware
10:10AM 38.0870 -98.4880 266° West 409 471 36,000  Level FlightAware
10:11AM 38.0830 -98.5690 266° West 409 471 36,000  Level FlightAware
10:11AM 38.0780 -98.6510 266° West 409 471 36,000  Level FlightAware
10:12AM 38.0720 -98.7530 266° West 409 471 36,000  Level FlightAware
10:13AM 38.0680 -98.8340 266° West 409 471 36,000  Level FlightAware
10:14AM 38.0630 -98.9160 266° West 409 471 36,000  Level FlightAware
10:14AM 38.0590 -98.9970 266° West 409 471 36,000  Level FlightAware
10:15AM 38.0540 -99.0790 266° West 409 471 36,000  Level FlightAware
10:16AM 38.0490 -99.1800 266° West 409 471 36,000  Level FlightAware
10:16AM 38.0440 -99.2620 266° West 409 471 36,000  Level FlightAware
10:17AM 38.0400 -99.3430 266° West 409 471 36,000  Level FlightAware
10:18AM 38.0839 -99.6228 266° West 398 458 36,000  Level Kansas City Center
10:19AM 38.0931 -99.7567 275° West 399 459 36,100  Climbing Kansas City Center
10:20AM 38.1011 -99.8897 274° West 397 457 36,000 -60 Descending Kansas City Center
10:21AM 38.1111 -100.0436 275° West 394 453 36,000  Level Kansas City Center
10:22AM 38.1189 -100.1756 274° West 393 452 36,000  Level Kansas City Center
10:23AM 38.1294 -100.3269 275° West 388 447 36,000  Level Kansas City Center
10:24AM 38.1361 -100.4553 274° West 385 443 36,000  Level Kansas City Center
10:25AM 38.1461 -100.6072 275° West 387 445 36,000  Level Kansas City Center
10:26AM 38.1542 -100.7367 275° West 387 445 36,100  Climbing Kansas City Center
10:27AM 38.1622 -100.8894 274° West 390 449 36,100  Level Kansas City Center
10:27AM 38.1639 -100.9108 276° West 390 449 36,100 -120 Level Denver Center
10:29AM 38.1733 -101.0847 274° West 390 449 36,000 -300 Descending Denver Center
10:35AM 38.4075 -101.8640 274° West 396 456 34,000 -360 Descending FlightAware ADS-B
10:35AM 38.4366 -101.9240 302° West 395 455 34,000  Level FlightAware ADS-B
10:36AM 38.4658 -101.9830 302° West 395 455 34,000  Level FlightAware ADS-B
10:36AM 38.5124 -102.0780 302° West 397 457 34,000  Level FlightAware ADS-B
10:37AM 38.5420 -102.1380 302° West 397 457 34,000  Level FlightAware ADS-B
10:37AM 38.5714 -102.1990 302° West 398 458 34,000  Level FlightAware ADS-B
10:38AM 38.6006 -102.2590 302° West 399 459 34,000  Level FlightAware ADS-B
10:38AM 38.6302 -102.3190 302° West 399 459 34,000  Level FlightAware ADS-B
10:39AM 38.6602 -102.3810 302° West 400 460 34,000  Level FlightAware ADS-B
10:40AM 38.6974 -102.4580 302° West 400 460 34,000  Level FlightAware ADS-B
10:40AM 38.7266 -102.5180 302° West 398 458 34,000  Level FlightAware ADS-B
10:41AM 38.7561 -102.5790 302° West 398 458 34,000  Level FlightAware ADS-B
10:41AM 38.7865 -102.6420 302° West 397 457 34,000  Level FlightAware ADS-B
10:42AM 38.8156 -102.7030 301° West 396 456 34,000 60 Level FlightAware ADS-B
10:42AM 38.8444 -102.7630 302° West 394 453 34,100  Climbing FlightAware ADS-B
10:43AM 38.8734 -102.8230 302° West 391 450 34,000 -600 Descending FlightAware ADS-B
10:43AM 38.9016 -102.8820 302° West 386 444 33,500 -900 Descending FlightAware ADS-B
10:44AM 38.9297 -102.9410 301° West 388 447 33,100 -900 Descending FlightAware ADS-B
10:44AM 38.9581 -103.0010 301° West 386 444 32,600 -1,020 Descending FlightAware ADS-B
10:45AM 38.9866 -103.0610 301° West 391 450 32,100 -1,620 Descending FlightAware ADS-B
10:45AM 39.0153 -103.1210 302° West 394 453 31,000 -2,520 Descending FlightAware ADS-B
10:46AM 39.0512 -103.1970 301° West 400 460 29,300 -2,580 Descending FlightAware ADS-B
10:46AM 39.0800 -103.2580 301° West 398 458 28,100 -2,340 Descending FlightAware ADS-B
10:47AM 39.1089 -103.3190 301° West 396 456 27,000 -2,220 Descending FlightAware ADS-B
10:47AM 39.1376 -103.3800 301° West 393 452 25,900 -2,220 Descending FlightAware ADS-B
10:48AM 39.1660 -103.4410 301° West 388 447 24,800 -2,100 Descending FlightAware ADS-B
10:48AM 39.1946 -103.5020 301° West 383 441 23,800 -2,040 Descending FlightAware ADS-B
10:49AM 39.2223 -103.5610 301° West 376 433 22,700 -2,100 Descending FlightAware ADS-B
10:49AM 39.2483 -103.6160 301° West 350 403 21,700 -2,040 Descending FlightAware ADS-B
10:50AM 39.2735 -103.6700 301° West 345 397 20,700 -1,980 Descending FlightAware ADS-B
10:50AM 39.2988 -103.7240 301° West 344 396 19,700 -1,920 Descending FlightAware ADS-B
10:51AM 39.3207 -103.7720 301° West 334 384 18,900 -1,800 Descending FlightAware ADS-B
10:51AM 39.3448 -103.8240 301° West 332 382 18,000 -1,260 Descending FlightAware ADS-B
10:52AM 39.3683 -103.8750 301° West 306 352 17,600 -900 Descending FlightAware ADS-B
10:52AM 39.3869 -103.9160 300° West 289 333 17,200 -1,020 Descending FlightAware ADS-B
10:52AM 39.3929 -103.9300 299° West 287 330 17,000 -1,320 Descending FlightAware ADS-B
10:52AM 39.3951 -103.9370 292° West 283 326 16,900 -1,680 Descending FlightAware ADS-B
10:53AM 39.3972 -103.9480 284° West 278 320 16,700 -1,200 Descending FlightAware ADS-B
10:53AM 39.3981 -103.9600 276° West 275 316 16,600 -1,140 Descending FlightAware ADS-B
10:53AM 39.4004 -104.0100 273° West 276 318 16,000 -1,200 Descending FlightAware ADS-B
10:53AM 39.4014 -104.0350 273° West 276 318 15,700 -1,260 Descending FlightAware ADS-B
10:54AM 39.4005 -104.0500 266° West 272 313 15,500 -1,200 Descending FlightAware ADS-B
10:54AM 39.3915 -104.0980 256° West 267 307 14,900 -1,920 Descending FlightAware ADS-B
10:55AM 39.3814 -104.1450 254° West 285 328 13,600 -2,100 Descending FlightAware ADS-B
10:55AM 39.3698 -104.1950 253° West 291 335 12,800 -900 Descending FlightAware ADS-B
10:56AM 39.3582 -104.2450 253° West 274 315 12,700 -120 Descending FlightAware ADS-B
10:56AM 39.3507 -104.2780 254° West 259 298 12,700  Level FlightAware ADS-B
10:56AM 39.3482 -104.2920 257° West 254 292 12,700  Level FlightAware ADS-B
10:57AM 39.3448 -104.3320 264° West 247 284 12,700  Level FlightAware ADS-B
10:57AM 39.3419 -104.3710 265° West 248 285 12,700 -360 Level FlightAware ADS-B
10:58AM 39.3386 -104.4110 264° West 248 285 12,400 -1,020 Descending FlightAware ADS-B
10:58AM 39.3341 -104.4570 263° West 249 287 11,700 -1,500 Descending FlightAware ADS-B
10:59AM 39.3298 -104.5020 263° West 253 291 10,900 -1,020 Descending FlightAware ADS-B
10:59AM 39.3256 -104.5480 263° West 254 292 10,700 -300 Descending FlightAware ADS-B
10:59AM 39.3237 -104.5690 263° West 255 293 10,700  Level FlightAware ADS-B
10:59AM 39.3234 -104.5780 268° West 255 293 10,700  Level FlightAware ADS-B
10:59AM 39.3239 -104.5840 276° West 254 292 10,700  Level FlightAware ADS-B
11:00AM 39.3248 -104.5900 281° West 252 290 10,700  Level FlightAware ADS-B
11:00AM 39.3269 -104.5970 291° West 250 288 10,700  Level FlightAware ADS-B
11:00AM 39.3303 -104.6040 302° West 248 285 10,700  Level FlightAware ADS-B
11:00AM 39.3328 -104.6080 309° West 247 284 10,700  Level FlightAware ADS-B
11:00AM 39.3353 -104.6110 317° Northwest 246 283 10,700  Level FlightAware ADS-B
11:00AM 39.3386 -104.6140 325° Northwest 245 282 10,700  Level FlightAware ADS-B
11:00AM 39.3417 -104.6160 333° Northwest 244 281 10,700  Level FlightAware ADS-B
11:00AM 39.3487 -104.6210 331° Northwest 242 278 10,700 -540 Level FlightAware ADS-B
11:00AM 39.3751 -104.6350 338° Northwest 230 265 10,400 -1,020 Descending FlightAware ADS-B
11:01AM 39.3903 -104.6440 335° Northwest 231 266 10,000 -1,140 Descending FlightAware ADS-B
11:01AM 39.4068 -104.6520 339° North 226 260 9,800 -600 Descending FlightAware ADS-B
11:01AM 39.4201 -104.6590 338° Northwest 229 264 9,700 -360 Descending FlightAware ADS-B
11:01AM 39.4254 -104.6610 344° North 229 264 9,700  Level FlightAware ADS-B
11:01AM 39.4285 -104.6620 346° North 230 265 9,700  Level FlightAware ADS-B
11:01AM 39.4333 -104.6630 351° North 230 265 9,700  Level FlightAware ADS-B
11:01AM 39.4370 -104.6640 348° North 230 265 9,700  Level FlightAware ADS-B
11:02AM 39.4550 -104.6640 360° North 231 266 9,700  Level FlightAware ADS-B
11:02AM 39.4662 -104.6640 360° North 231 266 9,700  Level FlightAware ADS-B
11:02AM 39.4792 -104.6650 357° North 230 265 9,700  Level FlightAware ADS-B
11:02AM 39.4974 -104.6640 North 229 264 9,700  Level FlightAware ADS-B
11:03AM 39.5155 -104.6640 360° North 229 264 9,700  Level FlightAware ADS-B
11:03AM 39.5328 -104.6640 360° North 230 265 9,700  Level FlightAware ADS-B
11:03AM 39.5490 -104.6640 360° North 224 258 9,700  Level FlightAware ADS-B
11:04AM 39.5653 -104.6640 360° North 207 238 9,700  Level FlightAware ADS-B
11:04AM 39.5802 -104.6630 North 199 229 9,700  Level FlightAware ADS-B
11:04AM 39.5940 -104.6630 360° North 199 229 9,700 -240 Level FlightAware ADS-B
11:04AM 39.6079 -104.6630 360° North 200 230 9,600 -600 Descending FlightAware ADS-B
11:05AM 39.6225 -104.6630 360° North 199 229 9,400 -960 Descending FlightAware ADS-B
11:05AM 39.6489 -104.6630 360° North 197 227 8,900 -1,260 Descending FlightAware ADS-B
11:05AM 39.6628 -104.6620 North 197 227 8,500 -1,320 Descending FlightAware ADS-B
11:06AM 39.6781 -104.6620 360° North 195 224 8,200 -1,140 Descending FlightAware ADS-B
11:06AM 39.6923 -104.6620 360° North 192 221 7,900 -1,020 Descending FlightAware ADS-B
11:06AM 39.7107 -104.6620 360° North 189 217 7,600 -1,020 Descending FlightAware ADS-B
11:06AM 39.7243 -104.6620 360° North 185 213 7,300 -1,200 Descending FlightAware ADS-B
11:07AM 39.7376 -104.6620 360° North 182 209 7,000 -1,080 Descending FlightAware ADS-B
11:07AM 39.7564 -104.6610 North 168 193 6,600 -960 Descending FlightAware ADS-B
11:07AM 39.7677 -104.6610 360° North 158 182 6,400 -780 Descending FlightAware ADS-B
11:08AM 39.7793 -104.6610 360° North 157 181 6,200 -960 Descending FlightAware ADS-B
11:08AM 39.7863 -104.6610 360° North 156 180 6,000 -1,020 Descending FlightAware ADS-B
11:08AM 39.7922 -104.6610 360° North 156 180 5,900 -780 Descending FlightAware ADS-B
11:08AM 39.8030 -104.6610 360° North 155 178 5,700 -1,020 Descending FlightAware ADS-B
11:08AM 39.8101 -104.6610 360° North 155 178 5,500 -960 Descending FlightAware ADS-B
11:09AM 39.8210 -104.6610 360° North 155 178 5,300 -780 Descending FlightAware ADS-B
11:09AM 39.8323 -104.6610 360° North 156 180 5,100 -840 Descending FlightAware ADS-B